Terminal Aerodrome Forecast
Issued by NWS Shreveport, LA

Home | Current Version | Previous Version | Text Only | Print | Product List | Glossary On
Versions: 1 2 3 4 5 6 7 8 9 10 11 12
000
FTUS44 KSHV 171700 RRA
TAFGGG
TAF
KGGG 171742Z 1718/1818 16005KT P6SM SCT035 BKN250
     FM172100 18006KT P6SM VCTS BKN040CB BKN250
     FM180100 19003KT P6SM SCT250
     FM180900 VRB03KT 6SM BR BKN015
      TEMPO 1809/1813 00000KT 4SM BR BKN007
     FM181600 16006KT P6SM FEW035 BKN250=

USA.gov is the U.S. government's official web portal to all federal, state and local government web resources and services.